sensor_id;sensor_type;location;lat;lon;timestamp;temperature;humidity
27559;DHT22;15002;52.028;5.670;2022-09-09T00:00:18;19.50;99.90
27559;DHT22;15002;52.028;5.670;2022-09-09T00:02:55;19.20;99.90
27559;DHT22;15002;52.028;5.670;2022-09-09T00:05:31;19.20;99.90
27559;DHT22;15002;52.028;5.670;2022-09-09T00:08:00;19.30;99.90
27559;DHT22;15002;52.028;5.670;2022-09-09T00:15:57;19.40;99.90
27559;DHT22;15002;52.028;5.670;2022-09-09T00:18:44;19.30;99.90
27559;DHT22;15002;52.028;5.670;2022-09-09T00:21:16;19.20;99.90
27559;DHT22;15002;52.028;5.670;2022-09-09T00:23:54;19.10;99.90
27559;DHT22;15002;52.028;5.670;2022-09-09T00:29:05;19.10;99.90
27559;DHT22;15002;52.028;5.670;2022-09-09T00:31:34;19.10;99.90
27559;DHT22;15002;52.028;5.670;2022-09-09T00:34:24;19.10;99.90
27559;DHT22;15002;52.028;5.670;2022-09-09T00:36:52;19.20;99.90
27559;DHT22;15002;52.028;5.670;2022-09-09T00:39:38;19.10;99.90
27559;DHT22;15002;52.028;5.670;2022-09-09T00:42:24;19.10;99.90
27559;DHT22;15002;52.028;5.670;2022-09-09T00:45:02;18.90;99.90
27559;DHT22;15002;52.028;5.670;2022-09-09T00:47:44;19.00;99.90
27559;DHT22;15002;52.028;5.670;2022-09-09T00:58:30;18.80;99.90
27559;DHT22;15002;52.028;5.670;2022-09-09T01:01:07;18.80;99.90
27559;DHT22;15002;52.028;5.670;2022-09-09T01:06:00;19.00;99.90
27559;DHT22;15002;52.028;5.670;2022-09-09T01:10:58;18.70;99.90
27559;DHT22;15002;52.028;5.670;2022-09-09T01:13:29;18.70;99.90
27559;DHT22;15002;52.028;5.670;2022-09-09T01:16:00;18.70;99.90
27559;DHT22;15002;52.028;5.670;2022-09-09T01:18:40;18.70;99.90
27559;DHT22;15002;52.028;5.670;2022-09-09T01:26:37;18.60;99.90
27559;DHT22;15002;52.028;5.670;2022-09-09T01:29:08;18.60;99.90
27559;DHT22;15002;52.028;5.670;2022-09-09T01:31:54;18.50;99.90
27559;DHT22;15002;52.028;5.670;2022-09-09T01:34:21;18.60;99.90
27559;DHT22;15002;52.028;5.670;2022-09-09T01:37:06;18.50;99.90
27559;DHT22;15002;52.028;5.670;2022-09-09T01:39:33;18.60;99.90
27559;DHT22;15002;52.028;5.670;2022-09-09T01:42:01;18.60;99.90
27559;DHT22;15002;52.028;5.670;2022-09-09T01:44:27;18.50;99.90
27559;DHT22;15002;52.028;5.670;2022-09-09T01:46:53;18.40;99.90
27559;DHT22;15002;52.028;5.670;2022-09-09T01:49:19;18.30;99.90
27559;DHT22;15002;52.028;5.670;2022-09-09T01:51:47;18.30;99.90
27559;DHT22;15002;52.028;5.670;2022-09-09T01:54:14;18.40;99.90
27559;DHT22;15002;52.028;5.670;2022-09-09T02:04:54;18.30;99.90
27559;DHT22;15002;52.028;5.670;2022-09-09T02:10:21;18.30;99.90
27559;DHT22;15002;52.028;5.670;2022-09-09T02:12:50;18.30;99.90
27559;DHT22;15002;52.028;5.670;2022-09-09T02:15:34;18.30;99.90
27559;DHT22;15002;52.028;5.670;2022-09-09T02:18:04;18.20;99.90
27559;DHT22;15002;52.028;5.670;2022-09-09T02:20:34;18.20;99.90
27559;DHT22;15002;52.028;5.670;2022-09-09T02:23:02;18.10;99.90
27559;DHT22;15002;52.028;5.670;2022-09-09T02:25:29;18.10;99.90
27559;DHT22;15002;52.028;5.670;2022-09-09T02:27:55;18.20;99.90
27559;DHT22;15002;52.028;5.670;2022-09-09T02:30:23;18.10;99.90
27559;DHT22;15002;52.028;5.670;2022-09-09T02:32:50;18.00;99.90
27559;DHT22;15002;52.028;5.670;2022-09-09T02:35:21;18.00;99.90
27559;DHT22;15002;52.028;5.670;2022-09-09T02:37:51;18.10;99.90
27559;DHT22;15002;52.028;5.670;2022-09-09T02:40:20;18.00;99.90
27559;DHT22;15002;52.028;5.670;2022-09-09T02:42:48;17.90;99.90
27559;DHT22;15002;52.028;5.670;2022-09-09T02:45:24;17.90;99.90
27559;DHT22;15002;52.028;5.670;2022-09-09T02:48:34;17.90;99.90
27559;DHT22;15002;52.028;5.670;2022-09-09T02:51:18;18.00;99.90
27559;DHT22;15002;52.028;5.670;2022-09-09T02:54:04;17.90;99.90
27559;DHT22;15002;52.028;5.670;2022-09-09T02:56:40;18.00;99.90
27559;DHT22;15002;52.028;5.670;2022-09-09T02:59:07;17.90;99.90
27559;DHT22;15002;52.028;5.670;2022-09-09T03:01:33;17.80;99.90
27559;DHT22;15002;52.028;5.670;2022-09-09T03:03:58;17.70;99.90
27559;DHT22;15002;52.028;5.670;2022-09-09T03:06:24;17.70;99.90
27559;DHT22;15002;52.028;5.670;2022-09-09T03:08:50;17.60;99.90
27559;DHT22;15002;52.028;5.670;2022-09-09T03:11:17;17.60;99.90
27559;DHT22;15002;52.028;5.670;2022-09-09T03:13:42;17.60;99.90
27559;DHT22;15002;52.028;5.670;2022-09-09T03:16:08;17.60;99.90
27559;DHT22;15002;52.028;5.670;2022-09-09T03:18:33;17.60;99.90
27559;DHT22;15002;52.028;5.670;2022-09-09T03:21:00;17.60;99.90
27559;DHT22;15002;52.028;5.670;2022-09-09T03:23:26;17.70;99.90
27559;DHT22;15002;52.028;5.670;2022-09-09T03:25:51;17.60;99.90
27559;DHT22;15002;52.028;5.670;2022-09-09T03:28:18;17.60;99.90
27559;DHT22;15002;52.028;5.670;2022-09-09T03:30:44;17.60;99.90
27559;DHT22;15002;52.028;5.670;2022-09-09T03:33:09;17.50;99.90
27559;DHT22;15002;52.028;5.670;2022-09-09T03:35:35;17.50;99.90
27559;DHT22;15002;52.028;5.670;2022-09-09T03:38:01;17.70;99.90
27559;DHT22;15002;52.028;5.670;2022-09-09T03:40:27;17.70;99.90
27559;DHT22;15002;52.028;5.670;2022-09-09T03:42:52;17.70;99.90
27559;DHT22;15002;52.028;5.670;2022-09-09T03:45:18;17.70;99.90
27559;DHT22;15002;52.028;5.670;2022-09-09T03:47:44;17.70;99.90
27559;DHT22;15002;52.028;5.670;2022-09-09T03:50:10;17.70;99.90
27559;DHT22;15002;52.028;5.670;2022-09-09T03:52:40;17.70;99.90
27559;DHT22;15002;52.028;5.670;2022-09-09T03:55:07;17.70;99.90
27559;DHT22;15002;52.028;5.670;2022-09-09T03:57:33;17.60;99.90
27559;DHT22;15002;52.028;5.670;2022-09-09T04:00:03;17.70;99.90
27559;DHT22;15002;52.028;5.670;2022-09-09T04:02:30;17.90;99.90
27559;DHT22;15002;52.028;5.670;2022-09-09T04:04:56;17.90;99.90
27559;DHT22;15002;52.028;5.670;2022-09-09T04:07:21;17.90;99.90
27559;DHT22;15002;52.028;5.670;2022-09-09T04:09:47;17.90;99.90
27559;DHT22;15002;52.028;5.670;2022-09-09T04:12:13;17.80;99.90
27559;DHT22;15002;52.028;5.670;2022-09-09T04:14:39;17.80;99.90
27559;DHT22;15002;52.028;5.670;2022-09-09T04:17:04;17.70;99.90
27559;DHT22;15002;52.028;5.670;2022-09-09T04:19:32;17.60;99.90
27559;DHT22;15002;52.028;5.670;2022-09-09T04:21:57;17.70;99.90
27559;DHT22;15002;52.028;5.670;2022-09-09T04:24:23;17.80;99.90
27559;DHT22;15002;52.028;5.670;2022-09-09T04:26:51;17.80;99.90
27559;DHT22;15002;52.028;5.670;2022-09-09T04:29:17;17.60;99.90
27559;DHT22;15002;52.028;5.670;2022-09-09T04:31:43;17.70;99.90
27559;DHT22;15002;52.028;5.670;2022-09-09T04:34:09;17.70;99.90
27559;DHT22;15002;52.028;5.670;2022-09-09T04:36:35;17.70;99.90
27559;DHT22;15002;52.028;5.670;2022-09-09T04:39:01;17.70;99.90
27559;DHT22;15002;52.028;5.670;2022-09-09T04:41:27;17.70;99.90
27559;DHT22;15002;52.028;5.670;2022-09-09T04:43:54;17.50;99.90
27559;DHT22;15002;52.028;5.670;2022-09-09T04:46:21;17.60;99.90
27559;DHT22;15002;52.028;5.670;2022-09-09T04:48:48;17.70;99.90
27559;DHT22;15002;52.028;5.670;2022-09-09T04:51:15;17.60;99.90
27559;DHT22;15002;52.028;5.670;2022-09-09T04:53:41;17.60;99.90
27559;DHT22;15002;52.028;5.670;2022-09-09T04:58:32;17.60;99.90
27559;DHT22;15002;52.028;5.670;2022-09-09T05:01:08;17.60;99.90
27559;DHT22;15002;52.028;5.670;2022-09-09T05:03:35;17.70;99.90
27559;DHT22;15002;52.028;5.670;2022-09-09T05:08:30;17.70;99.90
27559;DHT22;15002;52.028;5.670;2022-09-09T05:10:56;17.70;99.90
27559;DHT22;15002;52.028;5.670;2022-09-09T05:13:22;17.70;99.90
27559;DHT22;15002;52.028;5.670;2022-09-09T05:15:54;17.70;99.90
27559;DHT22;15002;52.028;5.670;2022-09-09T05:18:20;17.80;99.90
27559;DHT22;15002;52.028;5.670;2022-09-09T05:20:48;17.80;99.90
27559;DHT22;15002;52.028;5.670;2022-09-09T05:23:14;18.00;99.90
27559;DHT22;15002;52.028;5.670;2022-09-09T05:25:40;17.90;99.90
27559;DHT22;15002;52.028;5.670;2022-09-09T05:28:06;18.00;99.90
27559;DHT22;15002;52.028;5.670;2022-09-09T05:30:33;18.10;99.90
27559;DHT22;15002;52.028;5.670;2022-09-09T05:32:59;18.10;99.90
27559;DHT22;15002;52.028;5.670;2022-09-09T05:35:26;18.20;99.90
27559;DHT22;15002;52.028;5.670;2022-09-09T05:37:52;18.20;99.90
27559;DHT22;15002;52.028;5.670;2022-09-09T05:40:17;18.20;99.90
27559;DHT22;15002;52.028;5.670;2022-09-09T05:42:44;18.50;99.90
27559;DHT22;15002;52.028;5.670;2022-09-09T05:45:09;18.40;99.90
27559;DHT22;15002;52.028;5.670;2022-09-09T05:47:36;18.30;99.90
27559;DHT22;15002;52.028;5.670;2022-09-09T05:50:03;18.30;99.90
27559;DHT22;15002;52.028;5.670;2022-09-09T05:52:29;18.30;99.90
27559;DHT22;15002;52.028;5.670;2022-09-09T05:54:54;18.30;99.90
27559;DHT22;15002;52.028;5.670;2022-09-09T05:57:22;18.30;99.90
27559;DHT22;15002;52.028;5.670;2022-09-09T05:59:47;18.30;99.90
27559;DHT22;15002;52.028;5.670;2022-09-09T06:02:13;18.40;99.90
27559;DHT22;15002;52.028;5.670;2022-09-09T06:04:39;18.40;99.90
27559;DHT22;15002;52.028;5.670;2022-09-09T06:07:05;18.60;99.90
27559;DHT22;15002;52.028;5.670;2022-09-09T06:09:31;18.70;99.90
27559;DHT22;15002;52.028;5.670;2022-09-09T06:11:56;18.70;99.90
27559;DHT22;15002;52.028;5.670;2022-09-09T06:14:23;18.80;99.90
27559;DHT22;15002;52.028;5.670;2022-09-09T06:16:51;19.00;99.90
27559;DHT22;15002;52.028;5.670;2022-09-09T06:19:16;19.20;99.90
27559;DHT22;15002;52.028;5.670;2022-09-09T06:21:42;19.50;99.90
27559;DHT22;15002;52.028;5.670;2022-09-09T06:24:09;19.90;99.90
27559;DHT22;15002;52.028;5.670;2022-09-09T06:26:37;20.40;99.90
27559;DHT22;15002;52.028;5.670;2022-09-09T06:29:06;20.50;99.90
27559;DHT22;15002;52.028;5.670;2022-09-09T06:31:33;20.40;99.90
27559;DHT22;15002;52.028;5.670;2022-09-09T06:34:05;20.30;99.90
27559;DHT22;15002;52.028;5.670;2022-09-09T06:36:33;20.20;99.90
27559;DHT22;15002;52.028;5.670;2022-09-09T06:38:59;20.40;99.90
27559;DHT22;15002;52.028;5.670;2022-09-09T06:41:27;20.50;99.90
27559;DHT22;15002;52.028;5.670;2022-09-09T06:43:53;20.50;99.90
27559;DHT22;15002;52.028;5.670;2022-09-09T06:46:28;20.70;99.90
27559;DHT22;15002;52.028;5.670;2022-09-09T06:48:56;20.90;99.90
27559;DHT22;15002;52.028;5.670;2022-09-09T06:51:23;21.00;99.90
27559;DHT22;15002;52.028;5.670;2022-09-09T06:53:52;20.90;99.90
27559;DHT22;15002;52.028;5.670;2022-09-09T06:56:27;21.10;99.90
27559;DHT22;15002;52.028;5.670;2022-09-09T06:58:54;21.10;99.90
27559;DHT22;15002;52.028;5.670;2022-09-09T07:01:22;21.10;99.90
27559;DHT22;15002;52.028;5.670;2022-09-09T07:03:50;21.10;99.90
27559;DHT22;15002;52.028;5.670;2022-09-09T07:06:24;21.10;99.90
27559;DHT22;15002;52.028;5.670;2022-09-09T07:08:52;21.20;99.90
27559;DHT22;15002;52.028;5.670;2022-09-09T07:11:19;21.30;99.90
27559;DHT22;15002;52.028;5.670;2022-09-09T07:13:45;21.30;99.90
27559;DHT22;15002;52.028;5.670;2022-09-09T07:16:13;21.40;99.90
27559;DHT22;15002;52.028;5.670;2022-09-09T07:18:39;21.50;99.90
27559;DHT22;15002;52.028;5.670;2022-09-09T07:21:05;21.50;99.90
27559;DHT22;15002;52.028;5.670;2022-09-09T07:23:32;21.60;99.90
27559;DHT22;15002;52.028;5.670;2022-09-09T07:25:58;21.90;99.90
27559;DHT22;15002;52.028;5.670;2022-09-09T07:28:25;22.00;99.90
27559;DHT22;15002;52.028;5.670;2022-09-09T07:30:56;21.90;99.90
27559;DHT22;15002;52.028;5.670;2022-09-09T07:33:23;22.00;99.90
27559;DHT22;15002;52.028;5.670;2022-09-09T07:35:50;21.80;99.90
27559;DHT22;15002;52.028;5.670;2022-09-09T07:38:16;21.70;99.90
27559;DHT22;15002;52.028;5.670;2022-09-09T07:40:51;21.70;99.90
27559;DHT22;15002;52.028;5.670;2022-09-09T07:43:17;21.80;99.90
27559;DHT22;15002;52.028;5.670;2022-09-09T07:45:44;21.70;99.90
27559;DHT22;15002;52.028;5.670;2022-09-09T07:48:10;21.50;99.90
27559;DHT22;15002;52.028;5.670;2022-09-09T07:50:36;21.40;99.90
27559;DHT22;15002;52.028;5.670;2022-09-09T07:53:01;21.20;99.90
27559;DHT22;15002;52.028;5.670;2022-09-09T07:55:28;21.20;99.90
27559;DHT22;15002;52.028;5.670;2022-09-09T07:57:54;21.10;99.90
27559;DHT22;15002;52.028;5.670;2022-09-09T08:00:21;21.00;99.90
27559;DHT22;15002;52.028;5.670;2022-09-09T08:02:47;21.10;99.90
27559;DHT22;15002;52.028;5.670;2022-09-09T08:05:13;21.10;99.90
27559;DHT22;15002;52.028;5.670;2022-09-09T08:07:40;21.00;99.90
27559;DHT22;15002;52.028;5.670;2022-09-09T08:10:06;20.80;99.90
27559;DHT22;15002;52.028;5.670;2022-09-09T08:12:39;20.70;99.90
27559;DHT22;15002;52.028;5.670;2022-09-09T08:15:06;20.70;99.90
27559;DHT22;15002;52.028;5.670;2022-09-09T08:17:31;20.80;99.90
27559;DHT22;15002;52.028;5.670;2022-09-09T08:19:57;20.80;99.90
27559;DHT22;15002;52.028;5.670;2022-09-09T08:22:23;20.70;99.90
27559;DHT22;15002;52.028;5.670;2022-09-09T08:24:49;20.80;99.90
27559;DHT22;15002;52.028;5.670;2022-09-09T08:27:15;20.90;99.90
27559;DHT22;15002;52.028;5.670;2022-09-09T08:29:41;21.00;99.90
27559;DHT22;15002;52.028;5.670;2022-09-09T08:32:06;20.90;99.90
27559;DHT22;15002;52.028;5.670;2022-09-09T08:34:32;21.00;99.90
27559;DHT22;15002;52.028;5.670;2022-09-09T08:36:57;20.90;99.90
27559;DHT22;15002;52.028;5.670;2022-09-09T08:39:23;20.90;99.90
27559;DHT22;15002;52.028;5.670;2022-09-09T08:42:17;20.70;99.90
27559;DHT22;15002;52.028;5.670;2022-09-09T08:44:55;20.70;99.90
27559;DHT22;15002;52.028;5.670;2022-09-09T08:50:36;20.70;99.90
27559;DHT22;15002;52.028;5.670;2022-09-09T08:53:22;20.70;99.90
27559;DHT22;15002;52.028;5.670;2022-09-09T08:55:56;20.80;99.90
27559;DHT22;15002;52.028;5.670;2022-09-09T08:58:31;20.70;99.90
27559;DHT22;15002;52.028;5.670;2022-09-09T09:11:41;21.10;99.90
27559;DHT22;15002;52.028;5.670;2022-09-09T09:14:10;21.30;99.90
27559;DHT22;15002;52.028;5.670;2022-09-09T09:16:51;21.20;99.90
27559;DHT22;15002;52.028;5.670;2022-09-09T09:19:18;21.30;99.90
27559;DHT22;15002;52.028;5.670;2022-09-09T09:21:44;21.30;99.90
27559;DHT22;15002;52.028;5.670;2022-09-09T09:27:12;21.30;99.90
27559;DHT22;15002;52.028;5.670;2022-09-09T09:29:40;21.10;99.90
27559;DHT22;15002;52.028;5.670;2022-09-09T09:32:11;21.20;99.90
27559;DHT22;15002;52.028;5.670;2022-09-09T09:34:39;21.20;99.90
27559;DHT22;15002;52.028;5.670;2022-09-09T09:37:26;21.10;99.90
27559;DHT22;15002;52.028;5.670;2022-09-09T09:39:53;21.00;99.90
27559;DHT22;15002;52.028;5.670;2022-09-09T09:42:19;21.00;99.90
27559;DHT22;15002;52.028;5.670;2022-09-09T09:44:45;21.10;99.90
27559;DHT22;15002;52.028;5.670;2022-09-09T09:47:12;21.20;99.90
27559;DHT22;15002;52.028;5.670;2022-09-09T09:49:39;21.30;99.90
27559;DHT22;15002;52.028;5.670;2022-09-09T09:52:06;21.30;99.90
27559;DHT22;15002;52.028;5.670;2022-09-09T09:54:37;21.30;99.90
27559;DHT22;15002;52.028;5.670;2022-09-09T09:57:14;21.30;99.90
27559;DHT22;15002;52.028;5.670;2022-09-09T09:59:42;21.30;99.90
27559;DHT22;15002;52.028;5.670;2022-09-09T10:02:20;21.50;99.90
27559;DHT22;15002;52.028;5.670;2022-09-09T10:04:46;21.30;99.90
27559;DHT22;15002;52.028;5.670;2022-09-09T10:07:20;21.30;99.90
27559;DHT22;15002;52.028;5.670;2022-09-09T10:09:50;21.40;99.90
27559;DHT22;15002;52.028;5.670;2022-09-09T10:20:54;21.70;99.80
27559;DHT22;15002;52.028;5.670;2022-09-09T10:31:20;21.20;99.90
27559;DHT22;15002;52.028;5.670;2022-09-09T10:36:35;21.30;99.90
27559;DHT22;15002;52.028;5.670;2022-09-09T10:39:35;21.30;99.90
27559;DHT22;15002;52.028;5.670;2022-09-09T10:42:07;21.30;99.90
27559;DHT22;15002;52.028;5.670;2022-09-09T10:52:32;20.90;99.90
27559;DHT22;15002;52.028;5.670;2022-09-09T10:55:17;20.80;99.90
27559;DHT22;15002;52.028;5.670;2022-09-09T10:57:46;20.70;99.90
27559;DHT22;15002;52.028;5.670;2022-09-09T11:00:17;20.80;99.90
27559;DHT22;15002;52.028;5.670;2022-09-09T11:02:50;20.90;99.90
27559;DHT22;15002;52.028;5.670;2022-09-09T11:05:28;20.70;99.90
27559;DHT22;15002;52.028;5.670;2022-09-09T11:08:05;20.70;99.90
27559;DHT22;15002;52.028;5.670;2022-09-09T11:13:22;20.70;99.90
27559;DHT22;15002;52.028;5.670;2022-09-09T11:15:58;20.70;99.90
27559;DHT22;15002;52.028;5.670;2022-09-09T11:18:28;20.90;99.90
27559;DHT22;15002;52.028;5.670;2022-09-09T11:20:59;21.00;99.90
27559;DHT22;15002;52.028;5.670;2022-09-09T11:23:45;20.90;99.90
27559;DHT22;15002;52.028;5.670;2022-09-09T11:26:41;21.10;99.90
27559;DHT22;15002;52.028;5.670;2022-09-09T11:32:39;21.10;99.90
27559;DHT22;15002;52.028;5.670;2022-09-09T11:35:46;20.90;99.90
27559;DHT22;15002;52.028;5.670;2022-09-09T11:41:02;21.10;99.90
27559;DHT22;15002;52.028;5.670;2022-09-09T11:43:42;21.20;99.90
27559;DHT22;15002;52.028;5.670;2022-09-09T11:46:08;21.30;99.90
27559;DHT22;15002;52.028;5.670;2022-09-09T11:48:40;21.40;99.90
27559;DHT22;15002;52.028;5.670;2022-09-09T11:53:58;21.40;99.90
27559;DHT22;15002;52.028;5.670;2022-09-09T11:56:32;21.50;99.90
27559;DHT22;15002;52.028;5.670;2022-09-09T11:59:06;21.60;99.90
27559;DHT22;15002;52.028;5.670;2022-09-09T12:01:45;21.70;99.90
27559;DHT22;15002;52.028;5.670;2022-09-09T12:04:15;21.50;99.90
27559;DHT22;15002;52.028;5.670;2022-09-09T12:06:49;21.60;99.90
27559;DHT22;15002;52.028;5.670;2022-09-09T12:09:43;21.50;99.90
27559;DHT22;15002;52.028;5.670;2022-09-09T12:19:39;21.80;99.90
27559;DHT22;15002;52.028;5.670;2022-09-09T12:22:16;21.70;99.90
27559;DHT22;15002;52.028;5.670;2022-09-09T12:24:53;21.40;99.90
27559;DHT22;15002;52.028;5.670;2022-09-09T12:27:34;21.40;99.90
27559;DHT22;15002;52.028;5.670;2022-09-09T12:30:14;21.30;99.90
27559;DHT22;15002;52.028;5.670;2022-09-09T12:32:41;21.20;99.90
27559;DHT22;15002;52.028;5.670;2022-09-09T12:37:54;21.30;99.90
27559;DHT22;15002;52.028;5.670;2022-09-09T12:40:24;21.40;99.90
27559;DHT22;15002;52.028;5.670;2022-09-09T12:42:49;21.50;99.90
27559;DHT22;15002;52.028;5.670;2022-09-09T12:45:26;21.60;99.90
27559;DHT22;15002;52.028;5.670;2022-09-09T12:48:09;21.60;99.90
27559;DHT22;15002;52.028;5.670;2022-09-09T12:50:49;21.70;99.90
27559;DHT22;15002;52.028;5.670;2022-09-09T12:53:23;21.80;99.90
27559;DHT22;15002;52.028;5.670;2022-09-09T12:56:00;21.80;99.90
27559;DHT22;15002;52.028;5.670;2022-09-09T12:58:29;21.80;99.90
27559;DHT22;15002;52.028;5.670;2022-09-09T13:00:59;21.70;99.90
27559;DHT22;15002;52.028;5.670;2022-09-09T13:03:25;21.80;99.90
27559;DHT22;15002;52.028;5.670;2022-09-09T13:05:52;21.80;99.90
27559;DHT22;15002;52.028;5.670;2022-09-09T13:08:19;21.90;99.90
27559;DHT22;15002;52.028;5.670;2022-09-09T13:10:58;21.80;99.90
27559;DHT22;15002;52.028;5.670;2022-09-09T13:13:50;21.90;99.90
27559;DHT22;15002;52.028;5.670;2022-09-09T13:16:28;21.90;99.90
27559;DHT22;15002;52.028;5.670;2022-09-09T13:18:59;22.10;99.90
27559;DHT22;15002;52.028;5.670;2022-09-09T13:21:37;22.10;99.90
27559;DHT22;15002;52.028;5.670;2022-09-09T13:24:21;22.00;99.90
27559;DHT22;15002;52.028;5.670;2022-09-09T13:27:00;22.00;99.90
27559;DHT22;15002;52.028;5.670;2022-09-09T13:29:31;21.80;99.90
27559;DHT22;15002;52.028;5.670;2022-09-09T13:32:04;21.90;99.90
27559;DHT22;15002;52.028;5.670;2022-09-09T13:34:35;22.00;99.90
27559;DHT22;15002;52.028;5.670;2022-09-09T13:37:03;21.90;99.90
27559;DHT22;15002;52.028;5.670;2022-09-09T13:39:33;21.80;99.90
27559;DHT22;15002;52.028;5.670;2022-09-09T13:41:59;21.60;99.90
27559;DHT22;15002;52.028;5.670;2022-09-09T13:44:38;21.80;99.90
27559;DHT22;15002;52.028;5.670;2022-09-09T13:49:38;22.00;99.90
27559;DHT22;15002;52.028;5.670;2022-09-09T13:52:09;21.70;99.90
27559;DHT22;15002;52.028;5.670;2022-09-09T13:54:35;21.90;99.90
27559;DHT22;15002;52.028;5.670;2022-09-09T13:57:01;22.20;99.90
27559;DHT22;15002;52.028;5.670;2022-09-09T13:59:27;22.10;99.90
27559;DHT22;15002;52.028;5.670;2022-09-09T14:01:53;22.10;99.90
27559;DHT22;15002;52.028;5.670;2022-09-09T14:04:19;22.10;99.90
27559;DHT22;15002;52.028;5.670;2022-09-09T14:06:48;22.20;99.90
27559;DHT22;15002;52.028;5.670;2022-09-09T14:09:16;22.30;99.90
27559;DHT22;15002;52.028;5.670;2022-09-09T14:11:42;22.40;99.90
27559;DHT22;15002;52.028;5.670;2022-09-09T14:14:08;22.50;99.90
27559;DHT22;15002;52.028;5.670;2022-09-09T14:16:34;22.30;99.90
27559;DHT22;15002;52.028;5.670;2022-09-09T14:18:59;22.40;99.90
27559;DHT22;15002;52.028;5.670;2022-09-09T14:21:26;22.40;99.90
27559;DHT22;15002;52.028;5.670;2022-09-09T14:23:52;22.50;99.90
27559;DHT22;15002;52.028;5.670;2022-09-09T14:26:18;22.60;99.60
27559;DHT22;15002;52.028;5.670;2022-09-09T14:28:46;22.70;99.40
27559;DHT22;15002;52.028;5.670;2022-09-09T14:31:13;22.60;99.70
27559;DHT22;15002;52.028;5.670;2022-09-09T14:33:43;22.50;99.90
27559;DHT22;15002;52.028;5.670;2022-09-09T14:36:09;22.60;99.90
27559;DHT22;15002;52.028;5.670;2022-09-09T14:38:37;22.70;99.80
27559;DHT22;15002;52.028;5.670;2022-09-09T14:41:10;22.40;99.90
27559;DHT22;15002;52.028;5.670;2022-09-09T14:43:38;22.70;99.90
27559;DHT22;15002;52.028;5.670;2022-09-09T14:46:08;22.60;99.80
27559;DHT22;15002;52.028;5.670;2022-09-09T14:48:34;22.70;99.70
27559;DHT22;15002;52.028;5.670;2022-09-09T14:51:08;22.70;99.70
27559;DHT22;15002;52.028;5.670;2022-09-09T14:53:34;22.70;99.70
27559;DHT22;15002;52.028;5.670;2022-09-09T14:56:08;22.50;99.90
27559;DHT22;15002;52.028;5.670;2022-09-09T14:58:34;22.50;99.90
27559;DHT22;15002;52.028;5.670;2022-09-09T15:01:30;22.40;99.90
27559;DHT22;15002;52.028;5.670;2022-09-09T15:04:02;22.50;99.90
27559;DHT22;15002;52.028;5.670;2022-09-09T15:06:30;22.50;99.90
27559;DHT22;15002;52.028;5.670;2022-09-09T15:08:58;22.40;99.90
27559;DHT22;15002;52.028;5.670;2022-09-09T15:11:27;22.40;99.90
27559;DHT22;15002;52.028;5.670;2022-09-09T15:13:53;22.50;99.90
27559;DHT22;15002;52.028;5.670;2022-09-09T15:16:21;22.50;99.90
27559;DHT22;15002;52.028;5.670;2022-09-09T15:18:51;22.60;99.90
27559;DHT22;15002;52.028;5.670;2022-09-09T15:21:18;22.40;99.90
27559;DHT22;15002;52.028;5.670;2022-09-09T15:23:45;22.50;99.90
27559;DHT22;15002;52.028;5.670;2022-09-09T15:26:11;22.40;99.90
27559;DHT22;15002;52.028;5.670;2022-09-09T15:28:39;22.40;99.90
27559;DHT22;15002;52.028;5.670;2022-09-09T15:31:16;22.70;99.90
27559;DHT22;15002;52.028;5.670;2022-09-09T15:34:11;22.60;99.90
27559;DHT22;15002;52.028;5.670;2022-09-09T15:36:41;22.40;99.90
27559;DHT22;15002;52.028;5.670;2022-09-09T15:39:09;22.60;99.90
27559;DHT22;15002;52.028;5.670;2022-09-09T15:41:38;22.50;99.90
27559;DHT22;15002;52.028;5.670;2022-09-09T15:44:04;22.40;99.90
27559;DHT22;15002;52.028;5.670;2022-09-09T15:46:35;22.30;99.90
27559;DHT22;15002;52.028;5.670;2022-09-09T15:49:16;22.70;99.90
27559;DHT22;15002;52.028;5.670;2022-09-09T15:52:03;22.70;99.90
27559;DHT22;15002;52.028;5.670;2022-09-09T15:54:32;22.70;99.90
27559;DHT22;15002;52.028;5.670;2022-09-09T15:57:01;22.50;99.90
27559;DHT22;15002;52.028;5.670;2022-09-09T15:59:29;22.50;99.90
27559;DHT22;15002;52.028;5.670;2022-09-09T16:01:55;22.60;99.90
27559;DHT22;15002;52.028;5.670;2022-09-09T16:04:22;22.40;99.90
27559;DHT22;15002;52.028;5.670;2022-09-09T16:07:02;22.30;99.90
27559;DHT22;15002;52.028;5.670;2022-09-09T16:09:29;22.30;99.90
27559;DHT22;15002;52.028;5.670;2022-09-09T16:11:59;22.30;99.90
27559;DHT22;15002;52.028;5.670;2022-09-09T16:14:26;22.10;99.90
27559;DHT22;15002;52.028;5.670;2022-09-09T16:16:52;22.20;99.90
27559;DHT22;15002;52.028;5.670;2022-09-09T16:19:18;22.20;99.90
27559;DHT22;15002;52.028;5.670;2022-09-09T16:21:48;22.20;99.90
27559;DHT22;15002;52.028;5.670;2022-09-09T16:24:16;22.10;99.90
27559;DHT22;15002;52.028;5.670;2022-09-09T16:26:46;21.90;99.90
27559;DHT22;15002;52.028;5.670;2022-09-09T16:29:13;21.90;99.90
27559;DHT22;15002;52.028;5.670;2022-09-09T16:31:40;21.80;99.90
27559;DHT22;15002;52.028;5.670;2022-09-09T16:34:06;21.80;99.90
27559;DHT22;15002;52.028;5.670;2022-09-09T16:36:33;21.80;99.90
27559;DHT22;15002;52.028;5.670;2022-09-09T16:39:00;21.90;99.90
27559;DHT22;15002;52.028;5.670;2022-09-09T16:41:28;21.90;99.90
27559;DHT22;15002;52.028;5.670;2022-09-09T16:43:54;21.90;99.90
27559;DHT22;15002;52.028;5.670;2022-09-09T16:46:21;21.80;99.90
27559;DHT22;15002;52.028;5.670;2022-09-09T16:48:48;21.80;99.90
27559;DHT22;15002;52.028;5.670;2022-09-09T16:51:27;21.90;99.90
27559;DHT22;15002;52.028;5.670;2022-09-09T16:53:54;21.90;99.90
27559;DHT22;15002;52.028;5.670;2022-09-09T16:56:23;22.00;99.90
27559;DHT22;15002;52.028;5.670;2022-09-09T16:58:55;21.90;99.90
27559;DHT22;15002;52.028;5.670;2022-09-09T17:01:23;22.00;99.90
27559;DHT22;15002;52.028;5.670;2022-09-09T17:03:55;22.00;99.90
27559;DHT22;15002;52.028;5.670;2022-09-09T17:06:22;22.00;99.90
27559;DHT22;15002;52.028;5.670;2022-09-09T17:08:57;21.90;99.90
27559;DHT22;15002;52.028;5.670;2022-09-09T17:11:24;21.90;99.90
27559;DHT22;15002;52.028;5.670;2022-09-09T17:13:50;22.00;99.90
27559;DHT22;15002;52.028;5.670;2022-09-09T17:16:18;22.00;99.90
27559;DHT22;15002;52.028;5.670;2022-09-09T17:18:46;22.00;99.90
27559;DHT22;15002;52.028;5.670;2022-09-09T17:21:14;22.00;99.90
27559;DHT22;15002;52.028;5.670;2022-09-09T17:23:41;21.80;99.90
27559;DHT22;15002;52.028;5.670;2022-09-09T17:26:10;21.80;99.90
27559;DHT22;15002;52.028;5.670;2022-09-09T17:28:37;21.90;99.90
27559;DHT22;15002;52.028;5.670;2022-09-09T17:31:05;22.00;99.90
27559;DHT22;15002;52.028;5.670;2022-09-09T17:33:33;22.00;99.90
27559;DHT22;15002;52.028;5.670;2022-09-09T17:36:02;21.90;99.90
27559;DHT22;15002;52.028;5.670;2022-09-09T17:38:31;21.80;99.90